KATS

Artesia Municipal Airport

Artesia, New Mexico, USA
METAR KATS 190455Z AUTO 16009KT 10SM CLR 25/18 A2997 RMK AO2
Observed Flight Rules
Sep-19 @ 04:55 UTC (18 minutes ago) Visual Flight Rules
Wind Visibility Clouds
160° at 9 knots 10 miles
  • Clear skies
Temperatures Readings
Current 25°C / 77°F
Dewpoint 18°C / 64°F
Humidity 65%
Altimeter 29.97" Hg
Pressure 1015 hPa
Elevation 1081
METAR KATS 190455Z AUTO 16009KT 10SM CLR 25/18 A2997 RMK AO2
Observed Flight Rules
Sep-19 @ 04:55 UTC
(18 minutes ago)
VFR
Wind Visibility
160° at 9 knots 10 miles
Clouds
  • Clear skies
Temperature Dewpoint
25°C / 77°F 18°C / 64°F
Humidity Altimeter Pressure
65% 29.97" Hg 1015 hPa